Flight Track Log - Related Links

Times and Time Zones

All times are in EDT time to prevent confusion due to time zone crossing. See the N966QS flight status page for this flight to view local times or setup timezone preferences in your user account.

Time Position Orientation Groundspeed Altitude Reporting Facility
EDT Latitude Longitude Course Direction KTS MPH feet Rate Location/Type
Thu 01:05:34 PM 41.8000 -87.8000 90° East 198 228 2,700  Level Chicago TRACON
Thu 01:06:34 PM 41.8000 -87.7167 90° East 248 285 3,200 1,440 Climbing Chicago TRACON
Thu 01:07:39 PM 41.7842 -87.6222 103° East 266 306 5,700 3,118 Climbing Chicago Center
Thu 01:08:41 PM 41.7694 -87.5156 100° East 293 337 9,800 3,387 Climbing Chicago Center
Thu 01:09:43 PM 41.7675 -87.3967 91° East 316 364 12,700 2,516 Climbing Chicago Center
Thu 01:10:45 PM 41.7681 -87.2628 90° East 348 400 15,000 2,238 Climbing Chicago Center
Thu 01:11:00 PM 41.7500 -86.9705 90° East  Level FlightAware Approximate
Thu 01:11:49 PM 41.7678 -87.0803 90° East 399 459 17,400  Level Chicago Center
Thu 01:12:49 PM 41.7675 -86.9200 90° East 423 487 19,500 2,213 Climbing Chicago Center
Thu 01:13:51 PM 41.7669 -86.7533 90° East 441 507 21,900 2,371 Climbing Chicago Center
Thu 01:14:53 PM 41.7681 -86.5769 89° East 457 526 24,400 2,371 Climbing Chicago Center
Thu 01:15:55 PM 41.7667 -86.3994 91° East 471 542 26,800 2,293 Climbing Chicago Center
Thu 01:16:56 PM 41.7817 -86.2192 84° East 484 557 29,100 2,098 Climbing Chicago Center
Thu 01:17:58 PM 41.8161 -86.0369 76° East 499 574 31,100 1,790 Climbing Chicago Center
Thu 01:19:00 PM 41.8481 -85.8472 77° East 514 592 32,800 1,392 Climbing Chicago Center
Thu 01:20:03 PM 41.8822 -85.6447 77° East 542 624 34,000 1,065 Climbing Chicago Center
Thu 01:21:04 PM 41.9242 -85.3903 77° East 569 655 35,000 714 Climbing Chicago Center
Thu 01:21:27 PM 41.9367 -85.3347 73° East 542 624 35,000  Level Cleveland Center
Thu 01:22:27 PM 41.9539 -85.1153 84° East 564 649 35,000  Level Cleveland Center
Thu 01:23:27 PM 41.9542 -84.8919 90° East 580 667 35,000  Level Cleveland Center
Thu 01:24:27 PM 41.9517 -84.6683 91° East 591 680 35,000  Level Cleveland Center
Thu 01:25:27 PM 41.9492 -84.4419 91° East 596 686 35,000  Level Cleveland Center
Thu 01:26:27 PM 41.9425 -84.1986 92° East 596 686 35,000  Level Cleveland Center
Thu 01:27:27 PM 41.9389 -83.9750 91° East 596 686 35,000  Level Cleveland Center
Thu 01:28:27 PM 41.9369 -83.7542 91° East 596 686 35,000  Level Cleveland Center
Thu 01:29:27 PM 41.9325 -83.5336 91° East 596 686 35,000  Level Cleveland Center
Thu 01:30:27 PM 41.9317 -83.3103 90° East 596 686 35,000  Level Cleveland Center
Thu 01:31:27 PM 41.9300 -83.1147 91° East 591 680 35,000  Level Cleveland Center
Thu 01:32:27 PM 41.9283 -82.8914 91° East 591 680 35,000  Level Cleveland Center
Thu 01:33:27 PM 41.9264 -82.6708 91° East 591 680 35,000  Level Cleveland Center
Thu 01:34:27 PM 41.9258 -82.4531 90° East 591 680 35,000  Level Cleveland Center
Thu 01:35:27 PM 41.9231 -82.2408 91° East 585 673 35,000  Level Cleveland Center
Thu 01:36:27 PM 41.9178 -81.9978 92° East 585 673 35,000  Level Cleveland Center
Thu 01:37:27 PM 41.9203 -81.7831 89° East 585 673 35,000  Level Cleveland Center
Thu 01:38:27 PM 41.9433 -81.5686 82° East 580 667 35,000  Level Cleveland Center
Thu 01:39:27 PM 41.9678 -81.3567 81° East 575 662 35,000  Level Cleveland Center
Thu 01:40:27 PM 41.9897 -81.1447 82° East 580 667 35,000  Level Cleveland Center
Thu 01:41:27 PM 42.0136 -80.9269 82° East 580 667 35,000  Level Cleveland Center
Thu 01:42:27 PM 42.0328 -80.7369 82° East 580 667 35,000  Level Cleveland Center
Thu 01:43:27 PM 42.0558 -80.5217 82° East 580 667 35,000  Level Cleveland Center
Thu 01:44:27 PM 42.0764 -80.3061 83° East 580 667 35,000  Level Cleveland Center
Thu 01:45:27 PM 42.0986 -80.0906 82° East 580 667 35,000  Level Cleveland Center
Thu 01:46:27 PM 42.1183 -79.8750 83° East 580 667 35,000  Level Cleveland Center
Thu 01:47:27 PM 42.1397 -79.6619 82° East 580 667 35,000  Level Cleveland Center
Thu 01:48:27 PM 42.1608 -79.4458 82° East 580 667 35,000  Level Cleveland Center
Thu 01:49:27 PM 42.1831 -79.2017 83° East 588 677 35,000  Level Cleveland Center
Thu 01:50:27 PM 42.1642 -79.0172 98° East 577 664 35,000 -400 Level Cleveland Center
Thu 01:51:27 PM 42.1133 -78.8169 109° East 561 646 34,200 -500 Descending Cleveland Center
Thu 01:52:27 PM 42.0619 -78.6114 109° East 561 646 34,000 -100 Descending Cleveland Center
Thu 01:53:27 PM 42.0083 -78.4119 110° East 571 657 34,000 -166 Level Cleveland Center
Thu 01:55:28 PM 41.9017 -77.9942 109° East 562 647 33,500 -331 Descending New York Center
Thu 01:56:28 PM 41.8556 -77.8247 110° East 529 609 33,000 -248 Descending New York Center
Thu 01:57:29 PM 41.8147 -77.6672 109° East 485 558 33,000  Level New York Center
Thu 01:58:29 PM 41.7739 -77.5072 109° East 463 533 33,000  Level New York Center
Thu 01:59:27 PM 41.7289 -77.3442 110° East 457 526 33,000 -102 Level New York Center
Thu 02:00:27 PM 41.6911 -77.1989 109° East 462 532 32,800 -793 Descending New York Center
Thu 02:01:28 PM 41.6478 -77.0364 110° East 462 532 31,400 -1,475 Descending New York Center
Thu 02:02:29 PM 41.6042 -76.8742 110° East 462 532 29,800 -1,091 Descending New York Center
Thu 02:03:29 PM 41.5544 -76.7006 111° Southeast 462 532 29,200 -763 Descending New York Center
Thu 02:04:27 PM 41.5142 -76.5503 110° East 445 512 28,300 -1,210 Descending New York Center
Thu 02:05:28 PM 41.4772 -76.4083 109° East 425 489 26,800 -1,587 Descending New York Center
Thu 02:06:28 PM 41.4356 -76.2750 113° Southeast 418 481 25,100 -1,388 Descending New York Center
Thu 02:07:29 PM 41.3983 -76.1336 109° East 418 481 24,000 -1,160 Descending New York Center
Thu 02:08:27 PM 41.3603 -76.0033 111° Southeast 397 457 22,800 -1,664 Descending New York Center
Thu 02:09:28 PM 41.3225 -75.8678 110° East 392 451 20,700 -1,967 Descending New York Center
Thu 02:10:29 PM 41.2864 -75.7353 110° East 382 440 18,800 -1,916 Descending New York Center
Thu 02:11:27 PM 41.2497 -75.6167 112° Southeast 367 422 16,900 -2,017 Descending New York Center
Thu 02:12:28 PM 41.2089 -75.4953 114° Southeast 350 403 14,800 -2,281 Descending New York Center
Thu 02:13:28 PM 41.1678 -75.3739 114° Southeast 334 384 12,300 -2,579 Descending New York Center
Thu 02:14:29 PM 41.1322 -75.2694 114° Southeast 327 376 9,600 -2,168 Descending New York Center
Thu 02:15:27 PM 41.0986 -75.1681 114° Southeast 308 354 8,000 -857 Descending New York Center
Thu 02:16:28 PM 41.0683 -75.0808 115° Southeast 297 342 7,900 -49 Descending New York Center
Thu 02:17:29 PM 41.0347 -74.9769 113° Southeast 285 328 7,900  Level New York Center
Thu 02:18:29 PM 41.0475 -74.9033 77° East 216 249 7,900 -407 Level New York Center
Thu 02:19:27 PM 41.0881 -74.9417 325° Northwest 143 165 7,100 -508 Descending New York Center
Thu 02:20:27 PM 41.0469 -74.9806 216° Southwest 146 168 6,900 -446 Descending New York Center
Thu 02:21:28 PM 41.0042 -74.8981 124° Southeast 226 260 6,200 -443 Descending New York Center
Thu 02:22:29 PM 41.0033 -74.8017 91° East 242 278 6,000 -661 Descending New York Center
Thu 02:23:26 PM 41.0267 -74.7233 68° East 247 284 4,900 -1,311 Descending New York Center
Thu 02:24:28 PM 41.0592 -74.6264 66° East 257 296 3,400 -934 Descending New York Center
Thu 02:25:28 PM 41.0806 -74.5450 71° East 257 296 3,000 -198 Descending New York Center
Thu 02:26:29 PM 41.1083 -74.4500 69° East 252 290 3,000  Level New York Center
Thu 02:27:29 PM 41.0928 -74.3500 102° East 252 290 3,000  Level New York Center
Thu 02:27:49 PM 41.0833 -74.3167 111° Southeast 251 289 3,000  Level New York TRACON
Thu 02:28:44 PM 41.0833 -74.2333 90° East 267 307 3,000 1,887 Level New York TRACON
Thu 02:30:28 PM 41.0544 -74.0978 106° East 257 296 8,000 -480 Climbing New York Center
Thu 02:30:49 PM 41.0167 -74.0667 148° Southeast 223 257 2,000 -4,444 Descending New York TRACON
Thu 02:31:49 PM 40.9667 -74.0500 166° South 214 246 2,000 -261 Level New York TRACON
Thu 02:32:44 PM 40.9333 -74.0500 180° South 161 185 1,500 -684 Descending New York TRACON
Thu 02:33:43 PM 40.8833 -74.0500 180° South 142 163 700 -814 Descending New York TRACON
Thu 02:35:00 PM 40.8500 -74.0500 101° East  Level FlightAware Approximate
Thu 02:42:00 PM 40.8501 -74.0608 101° East  Level Estimated

Login

Don't have an account? Register now (free) for customized features, flight alerts, and more!